sensor_id;sensor_type;location;lat;lon;timestamp;pressure;altitude;pressure_sealevel;temperature;humidity
68169;BME280;54981;50.206;15.978;2024-02-14T00:13:57;99372.09;;;-0.57;100.00
68169;BME280;54981;50.206;15.978;2024-02-14T00:28:57;99362.53;;;-0.72;100.00
68169;BME280;54981;50.206;15.978;2024-02-14T00:43:58;99389.53;;;-0.66;100.00
68169;BME280;54981;50.206;15.978;2024-02-14T00:58:58;99400.94;;;-0.87;100.00
68169;BME280;54981;50.206;15.978;2024-02-14T01:13:58;99394.81;;;-0.87;100.00
68169;BME280;54981;50.206;15.978;2024-02-14T01:28:59;99403.56;;;-1.00;100.00
68169;BME280;54981;50.206;15.978;2024-02-14T01:44:01;99400.91;;;-0.94;100.00
68169;BME280;54981;50.206;15.978;2024-02-14T01:59:01;99387.00;;;-0.98;100.00
68169;BME280;54981;50.206;15.978;2024-02-14T02:14:02;99393.09;;;-1.16;100.00
68169;BME280;54981;50.206;15.978;2024-02-14T02:29:03;99391.38;;;-1.20;100.00
68169;BME280;54981;50.206;15.978;2024-02-14T02:44:05;99389.63;;;-0.93;100.00
68169;BME280;54981;50.206;15.978;2024-02-14T02:59:06;99394.81;;;-0.78;100.00
68169;BME280;54981;50.206;15.978;2024-02-14T03:14:07;99379.97;;;-0.71;100.00
68169;BME280;54981;50.206;15.978;2024-02-14T03:29:08;99383.44;;;-0.63;100.00
68169;BME280;54981;50.206;15.978;2024-02-14T03:44:09;99396.53;;;-0.80;100.00
68169;BME280;54981;50.206;15.978;2024-02-14T03:59:09;99406.13;;;-0.82;100.00
68169;BME280;54981;50.206;15.978;2024-02-14T04:14:10;99397.47;;;-1.01;100.00
68169;BME280;54981;50.206;15.978;2024-02-14T04:29:11;99415.75;;;-1.09;100.00
68169;BME280;54981;50.206;15.978;2024-02-14T04:44:12;99404.41;;;-1.01;100.00
68169;BME280;54981;50.206;15.978;2024-02-14T04:59:12;99406.16;;;-0.83;100.00
68169;BME280;54981;50.206;15.978;2024-02-14T05:14:13;99403.50;;;-0.63;100.00
68169;BME280;54981;50.206;15.978;2024-02-14T05:29:13;99403.44;;;-0.48;100.00
68169;BME280;54981;50.206;15.978;2024-02-14T05:44:14;99395.63;;;-0.56;100.00
68169;BME280;54981;50.206;15.978;2024-02-14T05:59:14;99405.13;;;-0.32;100.00
68169;BME280;54981;50.206;15.978;2024-02-14T06:14:14;99399.78;;;-0.04;100.00
68169;BME280;54981;50.206;15.978;2024-02-14T06:29:16;99421.53;;;0.13;100.00
68169;BME280;54981;50.206;15.978;2024-02-14T06:44:16;99434.38;;;0.58;100.00
68169;BME280;54981;50.206;15.978;2024-02-14T06:59:18;99437.75;;;0.69;100.00
68169;BME280;54981;50.206;15.978;2024-02-14T07:14:19;99420.19;;;0.85;100.00
68169;BME280;54981;50.206;15.978;2024-02-14T07:29:19;99428.69;;;1.13;100.00
68169;BME280;54981;50.206;15.978;2024-02-14T07:44:19;99414.28;;;1.53;100.00
68169;BME280;54981;50.206;15.978;2024-02-14T07:59:20;99429.03;;;1.64;100.00
68169;BME280;54981;50.206;15.978;2024-02-14T08:14:20;99430.56;;;1.82;100.00
68169;BME280;54981;50.206;15.978;2024-02-14T08:29:21;99429.13;;;2.29;100.00
68169;BME280;54981;50.206;15.978;2024-02-14T08:44:21;99429.38;;;2.71;100.00
68169;BME280;54981;50.206;15.978;2024-02-14T08:59:21;99421.63;;;3.16;100.00
68169;BME280;54981;50.206;15.978;2024-02-14T09:14:22;99429.44;;;3.69;100.00
68169;BME280;54981;50.206;15.978;2024-02-14T09:29:23;99410.06;;;4.17;100.00
68169;BME280;54981;50.206;15.978;2024-02-14T09:44:23;99418.38;;;4.37;100.00
68169;BME280;54981;50.206;15.978;2024-02-14T09:59:24;99399.88;;;5.13;100.00
68169;BME280;54981;50.206;15.978;2024-02-14T10:14:24;99384.72;;;6.17;100.00
68169;BME280;54981;50.206;15.978;2024-02-14T10:29:27;99372.50;;;7.22;100.00
68169;BME280;54981;50.206;15.978;2024-02-14T10:44:28;99357.75;;;8.13;100.00
68169;BME280;54981;50.206;15.978;2024-02-14T10:59:30;99349.63;;;7.70;100.00
68169;BME280;54981;50.206;15.978;2024-02-14T11:14:34;99313.53;;;8.79;100.00
68169;BME280;54981;50.206;15.978;2024-02-14T11:29:35;99296.31;;;8.47;100.00
68169;BME280;54981;50.206;15.978;2024-02-14T11:44:36;99275.13;;;9.29;100.00
68169;BME280;54981;50.206;15.978;2024-02-14T11:59:37;99262.47;;;9.73;100.00
68169;BME280;54981;50.206;15.978;2024-02-14T12:14:38;99264.19;;;10.31;100.00
68169;BME280;54981;50.206;15.978;2024-02-14T12:29:38;99249.97;;;10.50;100.00
68169;BME280;54981;50.206;15.978;2024-02-14T12:44:40;99263.31;;;10.31;100.00
68169;BME280;54981;50.206;15.978;2024-02-14T12:59:41;99248.72;;;10.39;100.00
68169;BME280;54981;50.206;15.978;2024-02-14T13:14:41;99252.88;;;10.26;100.00
68169;BME280;54981;50.206;15.978;2024-02-14T13:29:42;99239.25;;;10.69;100.00
68169;BME280;54981;50.206;15.978;2024-02-14T13:44:42;99242.66;;;10.17;100.00
68169;BME280;54981;50.206;15.978;2024-02-14T13:59:43;99239.75;;;9.85;100.00
68169;BME280;54981;50.206;15.978;2024-02-14T14:14:43;99239.53;;;9.90;100.00
68169;BME280;54981;50.206;15.978;2024-02-14T14:29:43;99227.97;;;9.53;100.00
68169;BME280;54981;50.206;15.978;2024-02-14T14:44:44;99227.22;;;9.49;100.00
68169;BME280;54981;50.206;15.978;2024-02-14T14:59:44;99227.50;;;9.24;100.00
68169;BME280;54981;50.206;15.978;2024-02-14T15:14:45;99230.25;;;9.02;100.00
68169;BME280;54981;50.206;15.978;2024-02-14T15:29:45;99242.19;;;8.92;100.00
68169;BME280;54981;50.206;15.978;2024-02-14T15:45:04;99247.50;;;8.71;100.00
68169;BME280;54981;50.206;15.978;2024-02-14T16:00:06;99245.91;;;8.67;100.00
68169;BME280;54981;50.206;15.978;2024-02-14T16:15:14;99251.25;;;8.45;100.00
68169;BME280;54981;50.206;15.978;2024-02-14T16:30:15;99260.72;;;8.51;100.00
68169;BME280;54981;50.206;15.978;2024-02-14T16:45:15;99266.22;;;8.24;100.00
68169;BME280;54981;50.206;15.978;2024-02-14T17:00:16;99280.31;;;8.03;100.00
68169;BME280;54981;50.206;15.978;2024-02-14T17:15:17;99290.34;;;7.96;100.00
68169;BME280;54981;50.206;15.978;2024-02-14T17:30:18;99279.91;;;8.14;100.00
68169;BME280;54981;50.206;15.978;2024-02-14T17:45:20;99302.59;;;7.99;100.00
68169;BME280;54981;50.206;15.978;2024-02-14T18:00:21;99310.72;;;7.94;100.00
68169;BME280;54981;50.206;15.978;2024-02-14T18:15:21;99329.38;;;7.91;100.00
68169;BME280;54981;50.206;15.978;2024-02-14T18:30:23;99323.00;;;7.97;100.00
68169;BME280;54981;50.206;15.978;2024-02-14T18:45:23;99314.19;;;7.73;100.00
68169;BME280;54981;50.206;15.978;2024-02-14T19:00:24;99328.13;;;7.78;100.00
68169;BME280;54981;50.206;15.978;2024-02-14T19:15:25;99329.25;;;7.72;100.00
68169;BME280;54981;50.206;15.978;2024-02-14T19:30:26;99330.19;;;7.69;100.00
68169;BME280;54981;50.206;15.978;2024-02-14T19:45:26;99336.81;;;7.58;100.00
68169;BME280;54981;50.206;15.978;2024-02-14T20:00:26;99351.75;;;7.60;100.00
68169;BME280;54981;50.206;15.978;2024-02-14T20:15:27;99352.38;;;7.67;100.00
68169;BME280;54981;50.206;15.978;2024-02-14T20:30:28;99347.97;;;7.67;100.00
68169;BME280;54981;50.206;15.978;2024-02-14T20:45:29;99348.16;;;7.61;100.00
68169;BME280;54981;50.206;15.978;2024-02-14T21:00:29;99338.75;;;7.53;100.00
68169;BME280;54981;50.206;15.978;2024-02-14T21:15:32;99342.94;;;7.35;100.00
68169;BME280;54981;50.206;15.978;2024-02-14T21:30:35;99352.06;;;7.26;100.00
68169;BME280;54981;50.206;15.978;2024-02-14T21:45:39;99352.41;;;7.42;100.00
68169;BME280;54981;50.206;15.978;2024-02-14T22:00:40;99351.19;;;7.25;100.00
68169;BME280;54981;50.206;15.978;2024-02-14T22:15:41;99350.53;;;7.19;100.00
68169;BME280;54981;50.206;15.978;2024-02-14T22:30:41;99349.25;;;7.06;100.00
68169;BME280;54981;50.206;15.978;2024-02-14T22:45:41;99354.00;;;6.96;100.00
68169;BME280;54981;50.206;15.978;2024-02-14T23:00:42;99338.78;;;6.76;100.00
68169;BME280;54981;50.206;15.978;2024-02-14T23:15:43;99354.28;;;6.87;100.00
68169;BME280;54981;50.206;15.978;2024-02-14T23:30:44;99343.66;;;6.88;100.00
68169;BME280;54981;50.206;15.978;2024-02-14T23:45:46;99344.78;;;6.81;100.00
